Аэропорт: Иркутск. Иркутск

ICAO: UIII

METAR:
2020-08-13 11:30:00
UIII 131130Z VRB01MPS 9999 FEW050CB 24/13 Q1000 R12/60D NOSIG RMK QFE708/0944
METAR:
2020-08-13 08:00:00
TAF UIII 130800Z 1309/1409 VRB01MPS 9999 SCT050CB